Aviation Digital Data Service (ADDS)

Output produced by METARs form (1205 UTC 15 July 2020)
found at http://www.aviationweather.gov/metar/data/
 
Forecast for: ZGSZ (SHENZHEN , CN)
Text: TAF ZGSZ 150904Z 1512/1612 19005MPS 8000 FEW025 TX33/1606Z TN29/1522Z
Forecast period: 1200 UTC 15 July 2020 to 1200 UTC 16 July 2020
Forecast type: FROM: standard forecast or significant change
Winds: from the S (190 degrees) at 12 MPH (10 knots; 5.1 m/s)
Visibility: 5 miles (8 km)
Ceiling: at least 12,000 feet AGL
Clouds: few clouds at 2500 feet AGL
Weather: no significant weather forecast for this period